Time;durP1;ratioP1;P1;durP2;ratioP2;P2;SDS_P1;SDS_P2;PMS_P1;PMS_P2;Temp;Humidity;BMP_temperature;BMP_pressure;BME280_temperature;BME280_humidity;BME280_pressure;Samples;Min_cycle;Max_cycle;Signal;HPM_P1;HPM_P2
2024/01/04 00:01:46;;;;;;;1.60;1.50;;;8.60;58.10;;;;;;5013793;28;20203;-65
2024/01/04 00:04:12;;;;;;;2.17;1.97;;;8.60;57.10;;;;;;5011366;28;20279;-65
2024/01/04 00:06:39;;;;;;;1.50;1.40;;;8.60;57.70;;;;;;5012651;28;20223;-64
2024/01/04 00:09:05;;;;;;;1.60;1.50;;;8.60;57.20;;;;;;5008849;28;20279;-65
2024/01/04 00:11:32;;;;;;;1.70;1.60;;;8.70;57.00;;;;;;5007932;28;20251;-63
2024/01/04 00:14:01;;;;;;;1.47;1.37;;;8.70;55.40;;;;;;5005489;28;20230;-64
2024/01/04 00:16:28;;;;;;;1.93;1.33;;;8.80;54.90;;;;;;5010052;28;20238;-63
2024/01/04 00:18:54;;;;;;;2.37;2.00;;;8.70;54.20;;;;;;5011153;28;20234;-64
2024/01/04 00:21:21;;;;;;;1.67;1.50;;;8.80;53.50;;;;;;5011695;28;20648;-63
2024/01/04 00:23:47;;;;;;;2.20;2.00;;;8.80;52.50;;;;;;5012658;28;20242;-66
2024/01/04 00:26:14;;;;;;;1.40;1.30;;;8.90;52.60;;;;;;5008980;28;20272;-65
2024/01/04 00:28:40;;;;;;;1.70;1.60;;;8.90;52.20;;;;;;5008647;28;20678;-64
2024/01/04 00:31:06;;;;;;;2.43;1.60;;;8.90;52.40;;;;;;5007651;28;20206;-64
2024/01/04 00:33:32;;;;;;;2.47;1.40;;;8.90;51.60;;;;;;5013376;28;20206;-64
2024/01/04 00:35:59;;;;;;;2.17;1.53;;;8.80;51.50;;;;;;5006786;28;20612;-64
2024/01/04 00:38:25;;;;;;;1.60;1.50;;;8.90;51.50;;;;;;5012652;28;20253;-62
2024/01/04 00:40:52;;;;;;;1.67;1.57;;;8.90;51.00;;;;;;5013463;28;20269;-64
2024/01/04 00:43:19;;;;;;;2.13;1.70;;;8.90;51.20;;;;;;5012722;28;20587;-65
2024/01/04 00:45:45;;;;;;;1.40;1.30;;;8.90;50.90;;;;;;5013282;28;20238;-64
2024/01/04 00:48:12;;;;;;;2.30;1.60;;;8.90;50.70;;;;;;5005451;28;20682;-64
2024/01/04 00:50:38;;;;;;;1.40;1.30;;;8.90;50.60;;;;;;5005588;28;20254;-64
2024/01/04 00:53:05;;;;;;;1.50;1.40;;;8.80;50.40;;;;;;5005334;28;20281;-64
2024/01/04 00:55:31;;;;;;;1.40;1.40;;;8.80;50.20;;;;;;5004992;28;20259;-62
2024/01/04 00:57:58;;;;;;;1.60;1.50;;;8.80;50.30;;;;;;5013060;28;20242;-64
2024/01/04 01:00:24;;;;;;;2.30;1.50;;;8.90;50.20;;;;;;5013274;28;20238;-62
2024/01/04 01:02:51;;;;;;;1.70;1.60;;;8.90;50.00;;;;;;5013103;28;20239;-64
2024/01/04 01:05:18;;;;;;;1.53;1.43;;;8.90;50.90;;;;;;5005076;28;20253;-64
2024/01/04 01:07:44;;;;;;;1.77;1.50;;;9.00;51.60;;;;;;5011509;28;20210;-64
2024/01/04 01:10:10;;;;;;;1.97;1.27;;;8.90;50.40;;;;;;5013025;28;20223;-63
2024/01/04 01:12:37;;;;;;;1.30;1.30;;;8.80;51.00;;;;;;5005040;28;20211;-64
2024/01/04 01:15:03;;;;;;;1.87;1.60;;;8.70;50.40;;;;;;5012940;28;20304;-64
2024/01/04 01:17:30;;;;;;;1.63;1.40;;;8.70;50.80;;;;;;5004657;28;20727;-65
2024/01/04 01:19:57;;;;;;;1.73;1.50;;;8.70;50.60;;;;;;5012723;28;20238;-63
2024/01/04 01:22:26;;;;;;;1.80;1.70;;;8.60;50.80;;;;;;5012664;28;20206;-62
2024/01/04 01:24:53;;;;;;;1.93;1.40;;;8.60;50.90;;;;;;5006545;28;20269;-65
2024/01/04 01:27:19;;;;;;;1.20;1.20;;;8.60;50.90;;;;;;5011982;28;20211;-62
2024/01/04 01:29:46;;;;;;;1.63;1.50;;;8.50;50.80;;;;;;5012243;28;20276;-63
2024/01/04 01:32:12;;;;;;;1.67;1.50;;;8.50;50.90;;;;;;5004029;28;20227;-62
2024/01/04 01:34:39;;;;;;;1.50;1.40;;;8.60;51.40;;;;;;5011959;28;20697;-63
2024/01/04 01:37:05;;;;;;;2.07;1.70;;;8.60;50.50;;;;;;5012545;28;20677;-64
2024/01/04 01:39:32;;;;;;;1.43;1.33;;;8.50;50.70;;;;;;5009153;28;20281;-63
2024/01/04 01:41:58;;;;;;;1.70;1.57;;;8.50;50.60;;;;;;5007837;28;20238;-65
2024/01/04 01:44:25;;;;;;;1.60;1.50;;;8.50;50.60;;;;;;5008154;28;20211;-62
2024/01/04 01:46:51;;;;;;;2.67;1.50;;;8.50;50.60;;;;;;5009851;28;20632;-64
2024/01/04 01:49:18;;;;;;;1.50;1.40;;;8.60;50.40;;;;;;5012212;28;20323;-64
2024/01/04 01:51:44;;;;;;;1.53;1.40;;;8.60;50.20;;;;;;5012295;28;20218;-63
2024/01/04 01:54:11;;;;;;;1.40;1.30;;;8.60;50.50;;;;;;5011572;28;20344;-63
2024/01/04 01:56:38;;;;;;;1.90;1.50;;;8.70;50.70;;;;;;5004706;28;20238;-64
2024/01/04 01:59:04;;;;;;;1.60;1.50;;;8.60;50.40;;;;;;5012097;28;20254;-65
2024/01/04 02:01:31;;;;;;;2.73;1.87;;;8.70;50.50;;;;;;5007442;28;20206;-65
2024/01/04 02:03:57;;;;;;;1.50;1.40;;;8.60;50.20;;;;;;5006992;28;20250;-65
2024/01/04 02:06:24;;;;;;;1.67;1.53;;;8.60;50.70;;;;;;5011859;28;20327;-65
2024/01/04 02:08:51;;;;;;;1.70;1.60;;;8.60;51.30;;;;;;5011754;28;20272;-65
2024/01/04 02:11:17;;;;;;;1.47;1.37;;;8.50;50.90;;;;;;5012051;28;20210;-64
2024/01/04 02:13:44;;;;;;;1.40;1.30;;;8.50;50.60;;;;;;5011774;28;20253;-64
2024/01/04 02:16:10;;;;;;;1.70;1.40;;;8.50;50.20;;;;;;5012250;28;20288;-64
2024/01/04 02:18:37;;;;;;;1.73;1.47;;;8.60;50.50;;;;;;5012059;28;20213;-65
2024/01/04 02:21:03;;;;;;;2.30;1.43;;;8.50;50.00;;;;;;5010008;28;20206;-64
2024/01/04 02:23:30;;;;;;;2.03;1.40;;;8.50;49.40;;;;;;5011825;28;20214;-64
2024/01/04 02:25:56;;;;;;;1.80;1.70;;;8.60;49.20;;;;;;5008735;28;20890;-62
2024/01/04 02:28:23;;;;;;;1.67;1.57;;;8.60;48.80;;;;;;5009858;28;20233;-64
2024/01/04 02:30:50;;;;;;;1.90;1.47;;;8.60;48.80;;;;;;5006054;28;20266;-64
2024/01/04 02:33:16;;;;;;;1.67;1.53;;;8.50;48.70;;;;;;5003756;28;20293;-64
2024/01/04 02:35:43;;;;;;;1.60;1.47;;;8.50;48.70;;;;;;5011877;28;20347;-64
2024/01/04 02:38:09;;;;;;;1.87;1.53;;;8.60;48.70;;;;;;5005382;28;20249;-61
2024/01/04 02:40:36;;;;;;;1.60;1.50;;;8.60;48.40;;;;;;5007761;28;20205;-63
2024/01/04 02:43:02;;;;;;;2.77;1.60;;;8.50;48.00;;;;;;5011635;28;20237;-65
2024/01/04 02:45:29;;;;;;;3.40;1.70;;;8.50;47.70;;;;;;5005179;28;20281;-64
2024/01/04 02:47:55;;;;;;;1.83;1.73;;;8.50;48.00;;;;;;5013411;28;20207;-62
2024/01/04 02:50:22;;;;;;;1.97;1.50;;;8.50;48.00;;;;;;5007102;28;20273;-64
2024/01/04 02:52:48;;;;;;;3.23;1.97;;;8.50;47.90;;;;;;5007075;28;20257;-61
2024/01/04 02:55:15;;;;;;;2.90;1.53;;;8.60;48.20;;;;;;5005568;28;20245;-62
2024/01/04 02:57:41;;;;;;;1.63;1.53;;;8.60;47.70;;;;;;5008625;28;20704;-63
2024/01/04 03:00:08;;;;;;;2.67;1.60;;;8.60;48.20;;;;;;5008020;28;20230;-64
2024/01/04 03:02:34;;;;;;;3.50;1.50;;;8.60;47.90;;;;;;5009827;28;20233;-62
2024/01/04 03:05:01;;;;;;;3.03;1.80;;;8.60;48.20;;;;;;5008534;28;20711;-64
2024/01/04 03:07:27;;;;;;;2.23;1.50;;;8.60;48.00;;;;;;5011731;28;20213;-62
2024/01/04 03:09:55;;;;;;;1.63;1.53;;;8.60;48.10;;;;;;5008307;28;20464;-61
2024/01/04 03:12:21;;;;;;;1.60;1.50;;;8.60;48.80;;;;;;5013936;28;20589;-62
2024/01/04 03:14:48;;;;;;;2.50;1.70;;;8.60;48.80;;;;;;5007682;28;20210;-65
2024/01/04 03:17:14;;;;;;;1.30;1.30;;;8.60;48.80;;;;;;5009526;28;20239;-65
2024/01/04 03:19:41;;;;;;;2.17;1.60;;;8.50;49.10;;;;;;5014046;28;20285;-62
2024/01/04 03:22:07;;;;;;;1.53;1.47;;;8.50;48.70;;;;;;5009169;28;20249;-64
2024/01/04 03:24:34;;;;;;;1.90;1.37;;;8.50;49.20;;;;;;5005917;28;20702;-64
2024/01/04 03:27:00;;;;;;;1.47;1.43;;;8.50;49.50;;;;;;5011923;28;20227;-63
2024/01/04 03:29:27;;;;;;;1.60;1.47;;;8.50;48.80;;;;;;5012147;28;20230;-65
2024/01/04 03:31:53;;;;;;;1.30;1.30;;;8.50;48.80;;;;;;5013835;28;20229;-65
2024/01/04 03:34:20;;;;;;;2.70;1.50;;;8.50;49.70;;;;;;5013353;28;20241;-64
2024/01/04 03:36:46;;;;;;;1.67;1.53;;;8.50;49.80;;;;;;5010663;28;20307;-63
2024/01/04 03:39:13;;;;;;;1.83;1.40;;;8.50;49.40;;;;;;5012173;28;20206;-65
2024/01/04 03:41:39;;;;;;;2.87;1.50;;;8.50;49.50;;;;;;5014412;28;20210;-65
2024/01/04 03:44:06;;;;;;;1.57;1.30;;;8.50;48.70;;;;;;5014809;28;20222;-64
2024/01/04 03:46:33;;;;;;;1.50;1.40;;;8.40;49.30;;;;;;5009832;28;20223;-62
2024/01/04 03:48:59;;;;;;;1.40;1.30;;;8.40;48.70;;;;;;5010563;28;20224;-62
2024/01/04 03:51:26;;;;;;;1.67;1.40;;;8.40;49.40;;;;;;5012206;28;20230;-64
2024/01/04 03:53:52;;;;;;;1.53;1.40;;;8.40;48.70;;;;;;5015360;28;20261;-65
2024/01/04 03:56:19;;;;;;;1.40;1.30;;;8.50;48.70;;;;;;5013503;28;20281;-62
2024/01/04 03:58:45;;;;;;;1.20;1.20;;;8.50;49.00;;;;;;5014577;28;20253;-65
2024/01/04 04:01:12;;;;;;;1.40;1.17;;;8.40;49.00;;;;;;5014091;28;20685;-65
2024/01/04 04:03:38;;;;;;;1.60;1.50;;;8.40;49.30;;;;;;5009376;28;20237;-64
2024/01/04 04:06:05;;;;;;;1.50;1.40;;;8.40;48.80;;;;;;5013710;28;20253;-64
2024/01/04 04:08:31;;;;;;;2.27;1.53;;;8.40;49.40;;;;;;5014136;28;20245;-64
2024/01/04 04:10:58;;;;;;;1.77;1.30;;;8.40;49.50;;;;;;5014192;28;20671;-62
2024/01/04 04:13:25;;;;;;;1.57;1.47;;;8.40;49.20;;;;;;5013904;28;20249;-62
2024/01/04 04:15:51;;;;;;;1.43;1.40;;;8.40;49.30;;;;;;5013952;28;20227;-64
2024/01/04 04:18:18;;;;;;;3.63;1.83;;;8.50;49.70;;;;;;5013314;28;20206;-64
2024/01/04 04:20:44;;;;;;;1.80;1.60;;;8.50;49.50;;;;;;5014086;28;20238;-62
2024/01/04 04:23:11;;;;;;;2.77;1.43;;;8.50;50.50;;;;;;5008338;28;20238;-64
2024/01/04 04:25:38;;;;;;;1.57;1.47;;;8.40;50.50;;;;;;5013618;28;20269;-64
2024/01/04 04:28:04;;;;;;;1.77;1.40;;;8.40;50.80;;;;;;5013863;28;20240;-64
2024/01/04 04:30:31;;;;;;;2.30;1.67;;;8.40;51.30;;;;;;5013736;28;20225;-64
2024/01/04 04:32:57;;;;;;;2.10;1.67;;;8.40;51.60;;;;;;5013716;28;20242;-64
2024/01/04 04:35:24;;;;;;;1.77;1.67;;;8.30;52.10;;;;;;5013563;28;20257;-64
2024/01/04 04:37:50;;;;;;;1.60;1.50;;;8.30;51.40;;;;;;5013538;28;20245;-64
2024/01/04 04:40:17;;;;;;;2.03;1.60;;;8.30;51.60;;;;;;5002674;28;20246;-62
2024/01/04 04:42:43;;;;;;;1.67;1.33;;;8.30;51.60;;;;;;5011364;28;20226;-63
2024/01/04 04:45:10;;;;;;;1.77;1.40;;;8.40;51.80;;;;;;5012931;28;20280;-62
2024/01/04 04:47:36;;;;;;;2.27;1.40;;;8.40;51.80;;;;;;5011107;28;20712;-64
2024/01/04 04:50:03;;;;;;;1.73;1.50;;;8.40;51.40;;;;;;5010313;28;20226;-64
2024/01/04 04:52:30;;;;;;;2.63;1.77;;;8.40;50.50;;;;;;5013230;28;20536;-62
2024/01/04 04:54:57;;;;;;;1.50;1.40;;;8.40;50.40;;;;;;5013015;28;20743;-62
2024/01/04 04:57:23;;;;;;;2.00;1.63;;;8.40;49.70;;;;;;5011817;28;20677;-63
2024/01/04 04:59:49;;;;;;;1.60;1.50;;;8.40;50.10;;;;;;5012804;28;20297;-64
2024/01/04 05:02:15;;;;;;;2.10;1.60;;;8.40;49.50;;;;;;5004840;28;20728;-64
2024/01/04 05:04:43;;;;;;;1.93;1.60;;;8.40;49.60;;;;;;5003771;28;20230;-63
2024/01/04 05:07:09;;;;;;;1.87;1.43;;;8.40;49.60;;;;;;5010942;28;20208;-64
2024/01/04 05:09:36;;;;;;;1.33;1.13;;;8.40;49.90;;;;;;5012266;28;20290;-64
2024/01/04 05:12:03;;;;;;;2.00;1.90;;;8.40;50.10;;;;;;5012829;28;20214;-62
2024/01/04 05:14:29;;;;;;;1.47;1.37;;;8.30;50.00;;;;;;5004948;28;20257;-62
2024/01/04 05:16:56;;;;;;;1.30;1.20;;;8.30;50.80;;;;;;5012655;28;20313;-64
2024/01/04 05:19:22;;;;;;;2.00;1.67;;;8.20;51.30;;;;;;5012595;28;20213;-63
2024/01/04 05:21:49;;;;;;;2.13;1.60;;;8.10;51.40;;;;;;5004779;28;20232;-63
2024/01/04 05:24:15;;;;;;;1.40;1.30;;;8.20;51.90;;;;;;5009009;28;20222;-62
2024/01/04 05:26:42;;;;;;;1.50;1.40;;;8.10;52.00;;;;;;5005170;28;20226;-64
2024/01/04 05:29:09;;;;;;;1.50;1.43;;;8.10;52.50;;;;;;5012420;28;20213;-64
2024/01/04 05:31:35;;;;;;;1.60;1.50;;;8.00;52.80;;;;;;5012476;28;20646;-63
2024/01/04 05:34:02;;;;;;;1.50;1.40;;;8.00;52.80;;;;;;5001263;28;20218;-62
2024/01/04 05:36:30;;;;;;;1.63;1.53;;;8.00;53.20;;;;;;5009251;28;20621;-65
2024/01/04 05:38:56;;;;;;;1.77;1.43;;;8.00;53.10;;;;;;5004908;28;20214;-64
2024/01/04 05:41:23;;;;;;;1.60;1.50;;;7.90;53.70;;;;;;4997934;28;20206;-64
2024/01/04 05:43:50;;;;;;;1.60;1.50;;;7.90;53.00;;;;;;5010279;28;20239;-64
2024/01/04 05:46:17;;;;;;;2.33;1.47;;;8.00;52.90;;;;;;5010648;28;20226;-64
2024/01/04 05:48:43;;;;;;;1.60;1.30;;;7.90;53.10;;;;;;5010114;28;20689;-65
2024/01/04 05:51:10;;;;;;;1.50;1.40;;;7.90;52.70;;;;;;5012195;28;20269;-64
2024/01/04 05:53:37;;;;;;;1.60;1.50;;;7.90;52.70;;;;;;5012936;28;20221;-62
2024/01/04 05:56:03;;;;;;;1.43;1.43;;;8.00;52.80;;;;;;5012847;28;20260;-63
2024/01/04 05:58:30;;;;;;;1.50;1.40;;;8.00;53.40;;;;;;5012652;28;20225;-64
2024/01/04 06:00:57;;;;;;;1.50;1.40;;;8.00;52.90;;;;;;5012394;28;20550;-64
2024/01/04 06:03:24;;;;;;;2.20;1.63;;;8.10;53.20;;;;;;5010820;28;20219;-65
2024/01/04 06:05:50;;;;;;;2.00;1.50;;;8.00;52.80;;;;;;5004958;28;20282;-65
2024/01/04 06:08:17;;;;;;;1.50;1.40;;;8.00;52.80;;;;;;5007279;28;20233;-62
2024/01/04 06:10:44;;;;;;;1.53;1.40;;;8.00;52.80;;;;;;5008224;28;20260;-63
2024/01/04 06:13:11;;;;;;;1.60;1.50;;;8.00;52.80;;;;;;5009175;28;20292;-64
2024/01/04 06:15:37;;;;;;;1.20;1.20;;;8.00;52.80;;;;;;5005504;28;20238;-64
2024/01/04 06:18:04;;;;;;;1.67;1.57;;;8.00;52.20;;;;;;5004249;28;20261;-64
2024/01/04 06:20:30;;;;;;;1.50;1.50;;;8.00;52.40;;;;;;5012272;28;20241;-64
2024/01/04 06:22:57;;;;;;;2.90;1.40;;;7.90;52.70;;;;;;5012355;28;20266;-65
2024/01/04 06:25:23;;;;;;;1.63;1.53;;;7.90;52.60;;;;;;5003424;28;20231;-63
2024/01/04 06:27:50;;;;;;;1.73;1.60;;;7.90;52.50;;;;;;5012397;28;20210;-62
2024/01/04 06:30:16;;;;;;;1.47;1.37;;;7.90;52.70;;;;;;5012156;28;20767;-62
2024/01/04 06:32:42;;;;;;;1.90;1.70;;;7.90;52.70;;;;;;5007923;28;20601;-63
2024/01/04 06:35:09;;;;;;;1.60;1.40;;;7.90;52.60;;;;;;5006974;28;20257;-63
2024/01/04 06:37:35;;;;;;;1.70;1.60;;;7.90;52.70;;;;;;5003084;28;20281;-61
2024/01/04 06:40:05;;;;;;;1.93;1.73;;;7.90;52.70;;;;;;5008620;28;20268;-64
2024/01/04 06:42:33;;;;;;;2.20;1.53;;;7.80;52.60;;;;;;5004414;28;20217;-64
2024/01/04 06:44:59;;;;;;;1.70;1.60;;;7.80;52.60;;;;;;5008653;28;20228;-64
2024/01/04 06:47:26;;;;;;;2.43;1.50;;;7.80;52.60;;;;;;5012311;28;20631;-65
2024/01/04 06:49:52;;;;;;;1.70;1.60;;;7.80;52.60;;;;;;5007735;28;20653;-64
2024/01/04 06:52:19;;;;;;;3.10;1.53;;;7.90;52.70;;;;;;5010151;28;20247;-63
2024/01/04 06:54:45;;;;;;;2.00;1.90;;;7.80;52.60;;;;;;5011730;28;20218;-64
2024/01/04 06:57:12;;;;;;;1.90;1.80;;;7.80;52.60;;;;;;5009233;28;20652;-63
2024/01/04 06:59:39;;;;;;;1.80;1.70;;;7.90;52.70;;;;;;5003481;28;20249;-64
2024/01/04 07:02:05;;;;;;;2.27;1.53;;;7.90;52.70;;;;;;5006058;28;20692;-64
2024/01/04 07:04:32;;;;;;;1.90;1.70;;;7.90;52.70;;;;;;5011841;28;20214;-64
2024/01/04 07:07:01;;;;;;;1.93;1.83;;;7.90;53.10;;;;;;5011219;28;20233;-64
2024/01/04 07:09:27;;;;;;;1.90;1.80;;;7.90;53.00;;;;;;5011523;28;20267;-64
2024/01/04 07:11:54;;;;;;;2.00;1.40;;;7.90;52.90;;;;;;5011620;28;20237;-62
2024/01/04 07:14:20;;;;;;;1.87;1.50;;;8.00;52.80;;;;;;5011575;28;20222;-62
2024/01/04 07:16:49;;;;;;;2.57;1.50;;;8.00;52.80;;;;;;5006303;28;20297;-62
2024/01/04 07:19:15;;;;;;;2.27;2.07;;;8.00;52.80;;;;;;5005534;28;20214;-64
2024/01/04 07:21:42;;;;;;;2.20;1.57;;;8.00;52.80;;;;;;5002265;28;20206;-64
2024/01/04 07:24:08;;;;;;;1.40;1.40;;;8.00;52.80;;;;;;5010296;28;20248;-64
2024/01/04 07:26:35;;;;;;;2.33;1.70;;;8.10;52.90;;;;;;5009457;28;20233;-64
2024/01/04 07:29:02;;;;;;;3.67;1.43;;;8.10;52.90;;;;;;5011397;28;20464;-62
2024/01/04 07:31:28;;;;;;;1.63;1.53;;;8.10;52.90;;;;;;5012561;28;20234;-65
2024/01/04 07:33:55;;;;;;;1.73;1.60;;;8.10;52.70;;;;;;5014921;28;20214;-64
2024/01/04 07:36:22;;;;;;;1.53;1.40;;;8.10;52.50;;;;;;5015035;28;20279;-64
2024/01/04 07:38:48;;;;;;;1.57;1.40;;;8.10;53.10;;;;;;5009872;28;20260;-64
2024/01/04 07:41:15;;;;;;;1.43;1.33;;;8.10;52.10;;;;;;5011318;28;20257;-65
2024/01/04 07:43:42;;;;;;;1.30;1.30;;;8.10;51.90;;;;;;5014748;28;20199;-65
2024/01/04 07:46:08;;;;;;;3.73;1.20;;;8.20;51.70;;;;;;5005757;28;20230;-64
2024/01/04 07:48:35;;;;;;;1.53;1.43;;;8.10;52.00;;;;;;5011257;28;20261;-64
2024/01/04 07:51:01;;;;;;;1.53;1.37;;;8.20;52.00;;;;;;5010732;28;20722;-62
2024/01/04 07:53:28;;;;;;;1.37;1.27;;;8.20;52.10;;;;;;5009242;28;20340;-64
2024/01/04 07:55:54;;;;;;;1.83;1.30;;;8.20;51.90;;;;;;5010320;28;20234;-64
2024/01/04 07:58:21;;;;;;;4.70;1.83;;;8.20;52.10;;;;;;5014388;28;20246;-62
2024/01/04 08:00:47;;;;;;;1.97;1.23;;;8.30;52.20;;;;;;5008729;28;20202;-65
2024/01/04 08:03:14;;;;;;;1.90;1.40;;;8.20;51.70;;;;;;5006490;28;20312;-64
2024/01/04 08:05:40;;;;;;;3.13;1.57;;;8.30;52.10;;;;;;5005374;28;20280;-64
2024/01/04 08:08:07;;;;;;;3.10;1.87;;;8.20;52.00;;;;;;5007894;28;20740;-64
2024/01/04 08:10:33;;;;;;;2.40;1.70;;;8.30;52.10;;;;;;5000930;28;20249;-63
2024/01/04 08:13:00;;;;;;;2.20;1.50;;;8.30;51.80;;;;;;5013656;28;20202;-64
2024/01/04 08:15:26;;;;;;;2.67;1.70;;;8.30;51.50;;;;;;5009987;28;20770;-65
2024/01/04 08:17:53;;;;;;;2.23;1.57;;;8.30;51.50;;;;;;5006800;28;20269;-64
2024/01/04 08:20:20;;;;;;;2.13;1.90;;;8.40;51.40;;;;;;5011765;28;20285;-64
2024/01/04 08:22:46;;;;;;;2.47;2.20;;;8.50;51.40;;;;;;5012736;28;20210;-64
2024/01/04 08:25:13;;;;;;;3.23;2.70;;;8.50;51.20;;;;;;5005916;28;20615;-64
2024/01/04 08:27:39;;;;;;;2.67;2.07;;;8.50;50.90;;;;;;5009393;28;20203;-64
2024/01/04 08:30:06;;;;;;;4.23;1.87;;;8.60;51.30;;;;;;5008908;28;20345;-63
2024/01/04 08:32:32;;;;;;;2.80;1.93;;;8.50;50.70;;;;;;5008529;28;20223;-64
2024/01/04 08:34:59;;;;;;;3.23;1.80;;;8.70;50.40;;;;;;5011346;28;20250;-64
2024/01/04 08:37:26;;;;;;;3.13;1.60;;;8.90;50.00;;;;;;5011770;28;20278;-64
2024/01/04 08:39:51;;;;;;;4.17;2.53;;;8.90;49.10;;;;;;5011099;28;20628;-61
2024/01/04 08:42:18;;;;;;;2.30;1.57;;;9.10;49.20;;;;;;5012682;28;20203;-63
2024/01/04 08:44:45;;;;;;;1.50;1.40;;;9.00;49.20;;;;;;5008421;28;20203;-64
2024/01/04 08:47:11;;;;;;;2.17;1.20;;;8.90;50.40;;;;;;5009889;28;20207;-64
2024/01/04 08:49:39;;;;;;;1.60;1.50;;;8.70;50.00;;;;;;5008560;28;20235;-63
2024/01/04 08:52:06;;;;;;;2.70;1.40;;;8.60;50.90;;;;;;5007934;28;20499;-63
2024/01/04 08:54:32;;;;;;;1.70;1.30;;;8.50;50.90;;;;;;5007969;28;20273;-64
2024/01/04 08:56:59;;;;;;;2.47;1.90;;;8.60;52.60;;;;;;5008680;28;20226;-64
2024/01/04 08:59:25;;;;;;;1.70;1.60;;;9.10;51.00;;;;;;5010859;28;20222;-65
2024/01/04 09:01:52;;;;;;;1.70;1.60;;;9.00;49.70;;;;;;5012204;28;20234;-61
2024/01/04 09:04:20;;;;;;;1.77;1.43;;;9.30;49.40;;;;;;5012491;28;20322;-62
2024/01/04 09:06:46;;;;;;;2.70;1.50;;;9.10;48.90;;;;;;5004574;28;20319;-64
2024/01/04 09:09:13;;;;;;;2.67;1.77;;;8.80;49.80;;;;;;5005714;28;20262;-64
2024/01/04 09:11:41;;;;;;;2.50;1.63;;;8.70;49.80;;;;;;5004226;28;20309;-68
2024/01/04 09:14:11;;;;;;;3.20;1.50;;;8.60;49.50;;;;;;5011382;28;20211;-64
2024/01/04 09:16:38;;;;;;;1.67;1.57;;;8.60;50.30;;;;;;5002076;28;20227;-64
2024/01/04 09:19:04;;;;;;;3.80;1.60;;;8.70;49.50;;;;;;5011438;28;20686;-63
2024/01/04 09:21:31;;;;;;;2.17;1.40;;;8.70;49.50;;;;;;5003910;28;20211;-62
2024/01/04 09:23:57;;;;;;;2.00;1.60;;;8.70;49.00;;;;;;5004451;28;20234;-63
2024/01/04 09:26:24;;;;;;;2.60;1.93;;;8.70;48.90;;;;;;5006629;28;20263;-62
2024/01/04 09:28:51;;;;;;;3.50;1.53;;;8.70;48.90;;;;;;5010619;28;20221;-64
2024/01/04 09:31:17;;;;;;;1.70;1.60;;;8.60;48.80;;;;;;5008782;28;20223;-62
2024/01/04 09:33:44;;;;;;;3.87;1.70;;;8.70;48.90;;;;;;5009901;28;20609;-63
2024/01/04 09:36:10;;;;;;;1.83;1.50;;;8.80;48.70;;;;;;5012342;28;20226;-62
2024/01/04 09:38:37;;;;;;;4.00;1.93;;;8.80;48.70;;;;;;5007863;28;20241;-63
2024/01/04 09:41:05;;;;;;;2.43;1.60;;;8.90;48.30;;;;;;5010321;28;20628;-64
2024/01/04 09:43:32;;;;;;;3.43;1.53;;;8.90;48.40;;;;;;5012141;28;20207;-64
2024/01/04 09:45:58;;;;;;;1.87;1.23;;;9.00;48.60;;;;;;5007428;28;20224;-63
2024/01/04 09:48:25;;;;;;;1.53;1.43;;;9.00;48.30;;;;;;5007871;28;20706;-63
2024/01/04 09:50:51;;;;;;;2.13;1.50;;;9.10;48.30;;;;;;5005064;28;20245;-63
2024/01/04 09:53:18;;;;;;;1.80;1.67;;;9.10;48.40;;;;;;5001694;28;20639;-62
2024/01/04 09:55:44;;;;;;;1.90;1.60;;;8.90;48.20;;;;;;5009824;28;20705;-62
2024/01/04 09:58:11;;;;;;;2.73;1.50;;;8.90;48.30;;;;;;5004952;28;20219;-62
2024/01/04 10:00:37;;;;;;;3.23;1.70;;;9.00;48.10;;;;;;5012667;28;20557;-62
2024/01/04 10:03:04;;;;;;;2.07;1.90;;;9.00;47.90;;;;;;5012366;28;20204;-62
2024/01/04 10:05:30;;;;;;;2.03;1.80;;;9.10;47.80;;;;;;5010111;28;20591;-61
2024/01/04 10:07:57;;;;;;;4.00;1.47;;;9.70;47.30;;;;;;5004510;28;20543;-61
2024/01/04 10:10:24;;;;;;;3.17;1.30;;;9.90;46.40;;;;;;5011811;28;20239;-62
2024/01/04 10:12:50;;;;;;;2.00;1.40;;;9.90;45.40;;;;;;5007824;28;20233;-62
2024/01/04 10:15:17;;;;;;;2.13;1.80;;;9.70;46.50;;;;;;5011419;28;20264;-62
2024/01/04 10:17:45;;;;;;;1.97;1.50;;;10.00;44.60;;;;;;5013869;28;20790;-62
2024/01/04 10:20:12;;;;;;;2.03;1.57;;;10.40;43.90;;;;;;5014052;28;20221;-62
2024/01/04 10:22:40;;;;;;;3.03;2.00;;;10.30;43.10;;;;;;5013480;28;20240;-61
2024/01/04 10:25:07;;;;;;;3.90;1.80;;;10.10;43.50;;;;;;5006405;28;20237;-62
2024/01/04 10:27:33;;;;;;;2.53;1.47;;;9.80;45.30;;;;;;5008193;28;20217;-62
2024/01/04 10:30:00;;;;;;;2.93;1.60;;;9.60;45.10;;;;;;5006171;28;20209;-62
2024/01/04 10:32:27;;;;;;;2.67;1.40;;;9.70;45.20;;;;;;5013615;28;20230;-62
2024/01/04 10:34:53;;;;;;;2.47;1.83;;;10.00;44.50;;;;;;5008090;28;20217;-60
2024/01/04 10:37:22;;;;;;;2.73;1.60;;;10.10;44.00;;;;;;5011895;28;20344;-62
2024/01/04 10:39:48;;;;;;;2.57;1.90;;;11.30;41.90;;;;;;5008794;28;20215;-62
2024/01/04 10:42:16;;;;;;;3.60;1.67;;;11.50;41.20;;;;;;5002950;28;20211;-62
2024/01/04 10:44:43;;;;;;;2.53;1.70;;;11.20;41.00;;;;;;5006452;28;20676;-64
2024/01/04 10:47:09;;;;;;;3.87;1.57;;;10.80;43.40;;;;;;5008889;28;20230;-62
2024/01/04 10:49:36;;;;;;;3.73;1.57;;;11.20;41.90;;;;;;5007755;28;20650;-64
2024/01/04 10:53:24;;;;;;;2.90;1.70;;;11.20;41.50;;;;;;5103066;27;20372;-62
2024/01/04 10:55:50;;;;;;;5.07;1.63;;;10.70;40.50;;;;;;5103138;28;20308;-62
2024/01/04 10:58:17;;;;;;;3.07;1.40;;;10.70;40.80;;;;;;5107117;28;20207;-63
2024/01/04 11:00:43;;;;;;;3.23;1.87;;;10.90;40.70;;;;;;5103950;28;20748;-62
2024/01/04 11:03:10;;;;;;;2.53;1.73;;;11.00;40.80;;;;;;5086939;28;20288;-64
2024/01/04 11:05:36;;;;;;;2.43;1.60;;;10.90;40.20;;;;;;5096384;28;20303;-62
2024/01/04 11:08:03;;;;;;;1.70;1.40;;;11.30;39.70;;;;;;5099605;28;20254;-63
2024/01/04 11:10:29;;;;;;;3.93;1.70;;;11.40;38.90;;;;;;5108370;28;20256;-63
2024/01/04 11:12:56;;;;;;;2.53;1.90;;;10.90;40.70;;;;;;5095316;28;20277;-63
2024/01/04 11:15:23;;;;;;;3.90;1.70;;;10.40;41.20;;;;;;5100419;28;20223;-62
2024/01/04 11:17:51;;;;;;;2.07;1.60;;;10.10;42.00;;;;;;5095191;28;20211;-63
2024/01/04 11:20:17;;;;;;;2.80;1.70;;;10.80;40.60;;;;;;5103390;28;20206;-63
2024/01/04 11:22:44;;;;;;;1.97;1.60;;;10.30;41.40;;;;;;5107944;28;20253;-63
2024/01/04 11:25:11;;;;;;;2.07;1.53;;;10.10;42.20;;;;;;5099741;28;20226;-63
2024/01/04 11:27:37;;;;;;;2.70;1.50;;;10.00;42.00;;;;;;5107410;28;20211;-63
2024/01/04 11:30:04;;;;;;;2.97;2.40;;;10.00;42.10;;;;;;5101493;28;20234;-62
2024/01/04 11:32:31;;;;;;;1.93;1.80;;;10.00;44.50;;;;;;5100888;28;20225;-62
2024/01/04 11:34:56;;;;;;;2.90;1.30;;;9.90;43.50;;;;;;5097729;28;20274;-62
2024/01/04 11:37:23;;;;;;;1.77;1.67;;;9.80;43.00;;;;;;5102019;28;20213;-62
2024/01/04 11:39:50;;;;;;;2.07;1.50;;;10.20;42.20;;;;;;5094927;28;20226;-63
2024/01/04 11:42:16;;;;;;;1.93;1.70;;;10.50;40.90;;;;;;5095024;28;20228;-61
2024/01/04 11:44:43;;;;;;;1.57;1.47;;;10.40;41.30;;;;;;5095053;28;20291;-62
2024/01/04 11:47:09;;;;;;;3.60;1.50;;;10.10;42.60;;;;;;5098674;28;20686;-62
2024/01/04 11:49:36;;;;;;;1.50;1.40;;;10.10;42.30;;;;;;5099372;28;20239;-62
2024/01/04 11:52:04;;;;;;;2.90;1.70;;;10.10;42.80;;;;;;5102843;28;20328;-63
2024/01/04 11:54:31;;;;;;;1.57;1.47;;;10.10;42.30;;;;;;5105772;28;20265;-62
2024/01/04 11:56:58;;;;;;;2.07;1.50;;;10.00;42.20;;;;;;5096700;28;20337;-67
2024/01/04 11:59:24;;;;;;;1.50;1.40;;;9.70;44.30;;;;;;5107234;28;20266;-65
2024/01/04 12:01:51;;;;;;;2.50;1.60;;;9.60;45.90;;;;;;5108518;28;20209;-61
2024/01/04 12:04:18;;;;;;;1.60;1.50;;;9.60;46.60;;;;;;5093531;28;20574;-64
2024/01/04 12:06:44;;;;;;;1.60;1.50;;;9.60;46.00;;;;;;5084188;28;20269;-63
2024/01/04 12:09:15;;;;;;;2.30;1.80;;;9.60;45.90;;;;;;5094556;28;20282;-64
2024/01/04 12:11:43;;;;;;;2.87;1.60;;;9.50;45.40;;;;;;5086486;28;20212;-63
2024/01/04 12:14:09;;;;;;;2.00;1.70;;;9.40;45.40;;;;;;5082813;28;20220;-63
2024/01/04 12:16:36;;;;;;;2.83;1.80;;;9.40;45.50;;;;;;5088408;28;20217;-63
2024/01/04 12:19:02;;;;;;;1.60;1.50;;;9.40;45.00;;;;;;5094226;28;20240;-63
2024/01/04 12:21:29;;;;;;;2.00;1.60;;;9.30;45.20;;;;;;5087518;28;20209;-63
2024/01/04 12:23:55;;;;;;;2.07;1.70;;;9.50;45.10;;;;;;5088459;28;20219;-63
2024/01/04 12:26:23;;;;;;;2.23;1.73;;;9.50;45.00;;;;;;5090963;28;20237;-63
2024/01/04 12:28:49;;;;;;;2.97;1.70;;;9.40;45.30;;;;;;5088958;28;20208;-62
2024/01/04 12:31:16;;;;;;;3.97;1.80;;;9.60;45.20;;;;;;5090334;28;20239;-63
2024/01/04 12:33:44;;;;;;;3.70;2.03;;;9.60;44.90;;;;;;5092153;28;20239;-63
2024/01/04 12:36:11;;;;;;;3.97;1.93;;;9.60;45.10;;;;;;5089424;28;20238;-63
2024/01/04 12:38:37;;;;;;;2.40;1.73;;;9.70;45.20;;;;;;5077148;28;20308;-63
2024/01/04 12:41:05;;;;;;;2.80;1.70;;;9.60;45.10;;;;;;5093612;28;20205;-64
2024/01/04 12:43:31;;;;;;;5.47;4.17;;;9.50;44.90;;;;;;5084945;28;20204;-68
2024/01/04 12:45:58;;;;;;;4.57;2.77;;;10.00;50.00;;;;;;5086651;28;20217;-69
2024/01/04 12:48:24;;;;;;;3.57;2.60;;;10.80;45.20;;;;;;5085645;28;20220;-68
2024/01/04 12:50:52;;;;;;;5.03;3.40;;;11.20;45.60;;;;;;5091186;28;20212;-69
2024/01/04 12:53:18;;;;;;;3.50;2.10;;;11.70;44.10;;;;;;5093786;28;20234;-68